createdAt,value
2023-01-10T00:00:12.467Z,5.05
2023-01-10T00:02:40.704Z,5.09
2023-01-10T00:05:10.770Z,5.09
2023-01-10T00:07:39.130Z,5.10
2023-01-10T00:10:07.626Z,5.04
2023-01-10T00:12:53.129Z,5.08
2023-01-10T00:15:21.492Z,5.10
2023-01-10T00:17:49.597Z,5.07
2023-01-10T00:20:20.102Z,5.07
2023-01-10T00:22:50.633Z,5.07
2023-01-10T00:25:21.637Z,5.07
2023-01-10T00:27:55.396Z,5.07
2023-01-10T00:30:23.497Z,5.06
2023-01-10T00:32:51.642Z,5.09
2023-01-10T00:35:21.302Z,5.12
2023-01-10T00:37:49.510Z,5.10
2023-01-10T00:40:18.034Z,5.09
2023-01-10T00:43:03.312Z,5.08
2023-01-10T00:45:31.816Z,5.10
2023-01-10T00:47:59.902Z,5.09
2023-01-10T00:50:29.405Z,5.08
2023-01-10T00:52:57.505Z,5.05
2023-01-10T00:55:25.726Z,5.03
2023-01-10T00:57:54.047Z,5.06
2023-01-10T01:00:22.223Z,5.03
2023-01-10T01:02:51.788Z,5.03
2023-01-10T01:05:20.769Z,5.01
2023-01-10T01:07:51.062Z,4.99
2023-01-10T01:10:29.282Z,5.02
2023-01-10T01:13:01.113Z,5.03
2023-01-10T01:15:29.321Z,5.04
2023-01-10T01:17:57.452Z,5.05
2023-01-10T01:20:25.553Z,5.05
2023-01-10T01:22:55.114Z,5.07
2023-01-10T01:25:23.249Z,5.06
2023-01-10T01:27:51.680Z,5.06
2023-01-10T01:30:19.876Z,5.04
2023-01-10T01:32:48.021Z,5.01
2023-01-10T01:35:17.278Z,5.03
2023-01-10T01:37:46.074Z,5.05
2023-01-10T01:40:17.719Z,5.01
2023-01-10T01:42:46.990Z,5.07
2023-01-10T01:45:39.254Z,5.06
2023-01-10T01:48:29.075Z,5.05
2023-01-10T01:51:05.801Z,5.04
2023-01-10T01:53:37.576Z,5.09
2023-01-10T01:56:13.079Z,5.08
2023-01-10T01:58:48.721Z,5.09
2023-01-10T02:01:17.709Z,5.11
2023-01-10T02:03:51.288Z,5.11
2023-01-10T02:06:22.149Z,5.12
2023-01-10T02:08:56.695Z,5.10
2023-01-10T02:11:26.216Z,5.11
2023-01-10T02:13:55.909Z,5.08
2023-01-10T02:16:24.065Z,5.06
2023-01-10T02:18:52.337Z,4.99
2023-01-10T02:21:44.874Z,4.97
2023-01-10T02:24:48.030Z,4.98
2023-01-10T02:27:29.648Z,5.00
2023-01-10T02:30:39.155Z,4.93
2023-01-10T02:33:18.451Z,4.94
2023-01-10T02:36:11.675Z,4.95
2023-01-10T02:38:48.960Z,4.94
2023-01-10T02:41:25.849Z,4.91
2023-01-10T02:44:00.276Z,4.90
2023-01-10T02:46:31.583Z,4.88
2023-01-10T02:49:01.224Z,4.89
2023-01-10T02:51:31.092Z,4.87
2023-01-10T02:54:03.108Z,4.86
2023-01-10T02:56:49.259Z,4.83
2023-01-10T02:59:40.745Z,4.84
2023-01-10T03:02:21.103Z,4.82
2023-01-10T03:04:57.176Z,4.81
2023-01-10T03:07:35.085Z,4.78
2023-01-10T03:10:07.694Z,4.78
2023-01-10T03:12:42.788Z,4.70
2023-01-10T03:15:16.004Z,4.71
2023-01-10T03:17:46.524Z,4.68
2023-01-10T03:20:18.979Z,4.68
2023-01-10T03:22:48.858Z,4.67
2023-01-10T03:25:20.389Z,4.69
2023-01-10T03:27:55.889Z,4.71
2023-01-10T03:30:29.594Z,4.70
2023-01-10T03:33:00.128Z,4.70
2023-01-10T03:35:39.621Z,4.68
2023-01-10T03:38:17.102Z,4.70
2023-01-10T03:40:54.952Z,4.66
2023-01-10T03:43:48.220Z,4.69
2023-01-10T03:46:19.452Z,4.67
2023-01-10T03:48:49.358Z,4.68
2023-01-10T03:51:20.750Z,4.66
2023-01-10T03:53:48.920Z,4.63
2023-01-10T03:56:17.081Z,4.63
2023-01-10T03:58:46.653Z,4.64
2023-01-10T04:01:14.892Z,4.62
2023-01-10T04:03:43.093Z,4.63
2023-01-10T04:06:11.398Z,4.65
2023-01-10T04:08:40.948Z,4.65
2023-01-10T04:11:09.121Z,4.66
2023-01-10T04:13:37.936Z,4.66
2023-01-10T04:16:06.533Z,4.67
2023-01-10T04:18:34.660Z,4.67
2023-01-10T04:21:02.761Z,4.65
2023-01-10T04:23:30.943Z,4.64
2023-01-10T04:26:00.492Z,4.66
2023-01-10T04:28:28.625Z,4.65
2023-01-10T04:30:56.758Z,4.64
2023-01-10T04:33:24.935Z,4.64
2023-01-10T04:35:54.168Z,4.66
2023-01-10T04:38:22.618Z,4.67
2023-01-10T04:40:55.164Z,4.66
2023-01-10T04:43:25.126Z,4.68
2023-01-10T04:45:53.444Z,4.66
2023-01-10T04:48:21.638Z,4.70
2023-01-10T04:50:53.311Z,4.71
2023-01-10T04:53:22.547Z,4.72
2023-01-10T04:55:50.793Z,4.73
2023-01-10T04:58:18.904Z,4.70
2023-01-10T05:00:48.441Z,4.77
2023-01-10T05:03:20.434Z,4.73
2023-01-10T05:05:48.607Z,4.77
2023-01-10T05:08:16.781Z,4.74
2023-01-10T05:10:44.944Z,4.70
2023-01-10T05:13:13.075Z,4.66
2023-01-10T05:15:41.330Z,4.68
2023-01-10T05:18:10.845Z,4.67
2023-01-10T05:20:38.986Z,4.69
2023-01-10T05:23:07.151Z,4.66
2023-01-10T05:25:35.473Z,4.67
2023-01-10T05:28:03.631Z,4.67
2023-01-10T05:30:31.774Z,4.62
2023-01-10T05:32:59.915Z,4.67
2023-01-10T05:35:29.477Z,4.64
2023-01-10T05:37:57.597Z,4.60
2023-01-10T05:40:25.723Z,4.62
2023-01-10T05:42:53.865Z,4.62
2023-01-10T05:45:22.004Z,4.65
2023-01-10T05:47:50.267Z,4.65
2023-01-10T05:50:19.101Z,4.63
2023-01-10T05:52:48.672Z,4.63
2023-01-10T05:55:16.888Z,4.61
2023-01-10T05:57:45.038Z,4.59
2023-01-10T06:00:14.491Z,4.57
2023-01-10T06:02:42.672Z,4.58
2023-01-10T06:05:11.209Z,4.53
2023-01-10T06:07:39.355Z,4.50
2023-01-10T06:10:09.777Z,4.55
2023-01-10T06:12:40.670Z,4.48
2023-01-10T06:15:10.349Z,4.43
2023-01-10T06:17:38.481Z,4.44
2023-01-10T06:20:07.710Z,4.41
2023-01-10T06:22:35.832Z,4.39
2023-01-10T06:25:04.169Z,4.36
2023-01-10T06:27:33.746Z,4.33
2023-01-10T06:30:02.388Z,4.30
2023-01-10T06:32:30.540Z,4.25
2023-01-10T06:34:58.785Z,4.18
2023-01-10T06:37:26.913Z,4.19
2023-01-10T06:39:55.046Z,4.17
2023-01-10T06:42:23.186Z,4.15
2023-01-10T06:44:52.806Z,4.15
2023-01-10T06:47:20.946Z,4.13
2023-01-10T06:49:49.165Z,4.10
2023-01-10T06:52:17.422Z,4.07
2023-01-10T06:54:45.774Z,4.06
2023-01-10T06:57:13.883Z,4.03
2023-01-10T06:59:42.060Z,4.01
2023-01-10T07:02:12.777Z,4.03
2023-01-10T07:04:40.961Z,4.04
2023-01-10T07:07:09.059Z,4.04
2023-01-10T07:09:37.219Z,4.07
2023-01-10T07:12:05.721Z,4.07
2023-01-10T07:14:33.870Z,4.09
2023-01-10T07:17:02.016Z,4.07
2023-01-10T07:19:31.615Z,4.08
2023-01-10T07:21:59.772Z,4.10
2023-01-10T07:24:28.067Z,4.13
2023-01-10T07:26:56.653Z,4.13
2023-01-10T07:29:24.773Z,4.10
2023-01-10T07:31:53.418Z,4.12
2023-01-10T07:34:21.588Z,4.14
2023-01-10T07:36:51.234Z,4.15
2023-01-10T07:39:19.606Z,4.16
2023-01-10T07:41:49.183Z,4.15
2023-01-10T07:44:17.469Z,4.11
2023-01-10T07:46:45.706Z,4.10
2023-01-10T07:49:14.292Z,4.10
2023-01-10T07:51:42.447Z,4.08
2023-01-10T07:54:14.645Z,4.06
2023-01-10T07:56:42.978Z,4.04
2023-01-10T07:59:11.119Z,4.00
2023-01-10T08:01:39.252Z,4.03
2023-01-10T08:04:07.480Z,4.01
2023-01-10T08:06:35.680Z,4.05
2023-01-10T08:09:05.928Z,4.00
2023-01-10T08:11:36.609Z,3.97
2023-01-10T08:14:04.809Z,3.97
2023-01-10T08:16:33.435Z,3.96
2023-01-10T08:19:01.681Z,3.93
2023-01-10T08:21:29.803Z,3.94
2023-01-10T08:23:57.953Z,3.91
2023-01-10T08:26:26.239Z,3.92
2023-01-10T08:28:55.788Z,3.92
2023-01-10T08:31:23.992Z,3.92
2023-01-10T08:33:52.177Z,3.90
2023-01-10T08:36:22.293Z,3.89
2023-01-10T08:38:51.128Z,3.88
2023-01-10T08:41:19.313Z,3.90
2023-01-10T08:43:50.736Z,3.91
2023-01-10T08:46:20.566Z,3.93
2023-01-10T08:48:50.485Z,3.95
2023-01-10T08:51:19.228Z,3.94
2023-01-10T08:53:47.450Z,3.91
2023-01-10T08:56:15.599Z,3.91
2023-01-10T08:58:43.710Z,3.91
2023-01-10T09:01:14.539Z,3.93
2023-01-10T09:03:44.163Z,3.92
2023-01-10T09:06:12.633Z,3.87
2023-01-10T09:08:40.749Z,3.87
2023-01-10T09:11:09.217Z,3.86
2023-01-10T09:13:37.327Z,3.83
2023-01-10T09:16:06.199Z,3.81
2023-01-10T09:18:34.501Z,3.78
2023-01-10T09:21:04.381Z,3.73
2023-01-10T09:23:32.539Z,3.70
2023-01-10T09:26:01.660Z,3.68
2023-01-10T09:28:29.797Z,3.62
2023-01-10T09:30:58.043Z,3.60
2023-01-10T09:33:28.087Z,3.60
2023-01-10T09:35:59.905Z,3.56
2023-01-10T09:38:29.532Z,3.55
2023-01-10T09:41:18.916Z,3.50
2023-01-10T09:44:01.090Z,3.49
2023-01-10T09:46:39.016Z,3.48
2023-01-10T09:49:19.792Z,3.50
2023-01-10T09:51:51.770Z,3.46
2023-01-10T09:54:27.195Z,3.43
2023-01-10T09:56:57.080Z,3.42
2023-01-10T09:59:27.965Z,3.40
2023-01-10T10:02:02.849Z,3.39
2023-01-10T10:04:36.241Z,3.38
2023-01-10T10:07:05.387Z,3.37
2023-01-10T10:09:36.240Z,3.33
2023-01-10T10:12:24.343Z,3.31
2023-01-10T10:15:04.822Z,3.35
2023-01-10T10:17:45.520Z,3.29
2023-01-10T10:20:27.598Z,3.36
2023-01-10T10:23:12.107Z,3.36
2023-01-10T10:25:55.640Z,3.37
2023-01-10T10:28:53.893Z,3.34
2023-01-10T10:31:34.056Z,3.37
2023-01-10T10:34:10.320Z,3.36
2023-01-10T10:36:43.779Z,3.34
2023-01-10T10:39:16.967Z,3.37
2023-01-10T10:41:49.675Z,3.35
2023-01-10T10:44:32.741Z,3.33
2023-01-10T10:47:01.207Z,3.36
2023-01-10T10:49:39.395Z,3.37
2023-01-10T10:52:18.937Z,3.36
2023-01-10T10:54:47.921Z,3.38
2023-01-10T10:57:17.777Z,3.38
2023-01-10T10:59:49.484Z,3.39
2023-01-10T11:02:24.728Z,3.39
2023-01-10T11:04:56.539Z,3.43
2023-01-10T11:07:25.840Z,3.44
2023-01-10T11:10:11.013Z,3.45
2023-01-10T11:12:45.356Z,3.44
2023-01-10T11:15:13.648Z,3.47
2023-01-10T11:17:42.076Z,3.48
2023-01-10T11:20:17.223Z,3.51
2023-01-10T11:22:50.304Z,3.51
2023-01-10T11:25:21.944Z,3.53
2023-01-10T11:27:54.496Z,3.54
2023-01-10T11:30:25.936Z,3.56
2023-01-10T11:32:57.148Z,3.59
2023-01-10T11:35:29.068Z,3.58
2023-01-10T11:38:04.732Z,3.59
2023-01-10T11:40:33.751Z,3.62
2023-01-10T11:43:25.485Z,3.63
2023-01-10T11:45:56.742Z,3.64
2023-01-10T11:48:56.057Z,3.66
2023-01-10T11:51:20.624Z,3.69
2023-01-10T11:53:51.479Z,3.68
2023-01-10T11:56:27.225Z,3.70
2023-01-10T11:58:58.763Z,3.76
2023-01-10T12:01:35.534Z,3.79
2023-01-10T12:04:04.091Z,3.81
2023-01-10T12:06:33.140Z,3.82
2023-01-10T12:09:01.357Z,3.87
2023-01-10T12:11:32.083Z,3.86
2023-01-10T12:14:03.188Z,3.87
2023-01-10T12:16:33.128Z,3.88
2023-01-10T12:19:02.673Z,3.90
2023-01-10T12:21:37.097Z,3.89
2023-01-10T12:24:08.940Z,3.94
2023-01-10T12:26:37.780Z,3.93
2023-01-10T12:29:16.408Z,3.92
2023-01-10T12:31:44.575Z,3.91
2023-01-10T12:34:20.179Z,3.93
2023-01-10T12:37:00.683Z,3.93
2023-01-10T12:39:33.549Z,3.95
2023-01-10T12:42:32.634Z,3.94
2023-01-10T12:45:07.308Z,3.89
2023-01-10T12:47:49.530Z,3.86
2023-01-10T12:50:22.679Z,3.85
2023-01-10T12:52:59.525Z,3.88
2023-01-10T12:55:32.258Z,3.87
2023-01-10T12:58:01.672Z,3.86
2023-01-10T13:00:40.470Z,3.87
2023-01-10T13:03:20.817Z,3.86
2023-01-10T13:05:52.187Z,3.87
2023-01-10T13:08:25.273Z,3.86
2023-01-10T13:10:56.189Z,3.84
2023-01-10T13:13:34.168Z,3.84
2023-01-10T13:16:19.732Z,3.82
2023-01-10T13:19:06.918Z,3.82
2023-01-10T13:21:36.068Z,3.86
2023-01-10T13:24:06.778Z,3.86
2023-01-10T13:26:51.193Z,3.87
2023-01-10T13:29:21.049Z,3.88
2023-01-10T13:31:57.464Z,3.89
2023-01-10T13:34:33.329Z,3.91
2023-01-10T13:37:04.902Z,3.91
2023-01-10T13:39:37.292Z,3.93
2023-01-10T13:42:47.001Z,3.91
2023-01-10T13:45:23.836Z,3.93
2023-01-10T13:48:27.563Z,3.93
2023-01-10T13:51:10.412Z,3.93
2023-01-10T13:53:58.297Z,3.95
2023-01-10T13:56:47.125Z,3.97
2023-01-10T13:59:53.794Z,3.94
2023-01-10T14:02:32.094Z,3.96
2023-01-10T14:05:04.190Z,3.93
2023-01-10T14:07:35.664Z,3.97
2023-01-10T14:10:06.935Z,3.95
2023-01-10T14:12:40.466Z,3.95
2023-01-10T14:15:22.008Z,3.99
2023-01-10T14:17:58.215Z,3.94
2023-01-10T14:20:29.517Z,3.98
2023-01-10T14:23:05.192Z,4.00
2023-01-10T14:25:36.073Z,4.03
2023-01-10T14:28:05.353Z,3.99
2023-01-10T14:30:35.323Z,4.05
2023-01-10T14:33:09.200Z,4.07
2023-01-10T14:35:46.276Z,4.01
2023-01-10T14:38:21.801Z,4.01
2023-01-10T14:40:53.164Z,4.05
2023-01-10T14:43:26.825Z,4.07
2023-01-10T14:46:02.128Z,4.08
2023-01-10T14:48:33.746Z,4.09
2023-01-10T14:51:11.561Z,4.10
2023-01-10T14:53:39.848Z,4.09
2023-01-10T14:56:19.961Z,4.11
2023-01-10T14:58:48.149Z,4.09
2023-01-10T15:01:23.518Z,4.14
2023-01-10T15:03:52.979Z,4.17
2023-01-10T15:06:24.463Z,4.19
2023-01-10T15:08:58.511Z,4.12
2023-01-10T15:11:29.122Z,4.18
2023-01-10T15:14:03.603Z,4.19
2023-01-10T15:16:32.520Z,4.21
2023-01-10T15:19:01.074Z,4.18
2023-01-10T15:21:30.647Z,4.18
2023-01-10T15:23:58.795Z,4.20
2023-01-10T15:26:30.517Z,4.21
2023-01-10T15:29:08.294Z,4.18
2023-01-10T15:31:38.794Z,4.20
2023-01-10T15:34:12.479Z,4.20
2023-01-10T15:36:47.088Z,4.18
2023-01-10T15:39:21.708Z,4.23
2023-01-10T15:41:50.870Z,4.27
2023-01-10T15:44:35.776Z,4.24
2023-01-10T15:47:04.231Z,4.25
2023-01-10T15:49:32.499Z,4.33
2023-01-10T15:52:02.081Z,4.32
2023-01-10T15:54:34.852Z,4.27
2023-01-10T15:57:09.447Z,4.24
2023-01-10T15:59:40.537Z,4.26
2023-01-10T16:02:24.933Z,4.27
2023-01-10T16:04:56.794Z,4.29
2023-01-10T16:07:31.292Z,4.31
2023-01-10T16:10:05.477Z,4.32
2023-01-10T16:12:55.781Z,4.34
2023-01-10T16:15:26.125Z,4.32
2023-01-10T16:17:57.572Z,4.32
2023-01-10T16:20:30.593Z,4.35
2023-01-10T16:23:01.250Z,4.37
2023-01-10T16:25:33.650Z,4.37
2023-01-10T16:28:02.019Z,4.36
2023-01-10T16:30:35.955Z,4.39
2023-01-10T16:33:11.742Z,4.37
2023-01-10T16:35:40.030Z,4.38
2023-01-10T16:38:11.321Z,4.38
2023-01-10T16:40:42.181Z,4.42
2023-01-10T16:43:21.676Z,4.46
2023-01-10T16:45:51.814Z,4.46
2023-01-10T16:48:21.675Z,4.43
2023-01-10T16:50:50.138Z,4.50
2023-01-10T16:53:21.179Z,4.48
2023-01-10T16:55:50.799Z,4.50
2023-01-10T16:58:20.457Z,4.57
2023-01-10T17:00:51.729Z,4.52
2023-01-10T17:03:22.782Z,4.59
2023-01-10T17:05:51.166Z,4.53
2023-01-10T17:08:23.292Z,4.55
2023-01-10T17:10:56.350Z,4.56
2023-01-10T17:13:27.213Z,4.53
2023-01-10T17:15:55.545Z,4.50
2023-01-10T17:18:25.016Z,4.58
2023-01-10T17:20:53.538Z,4.58
2023-01-10T17:23:23.418Z,4.64
2023-01-10T17:26:00.761Z,4.63
2023-01-10T17:28:29.286Z,4.65
2023-01-10T17:31:00.429Z,4.68
2023-01-10T17:33:29.395Z,4.68
2023-01-10T17:35:58.188Z,4.67
2023-01-10T17:38:28.963Z,4.62
2023-01-10T17:41:02.132Z,4.66
2023-01-10T17:43:31.371Z,4.70
2023-01-10T17:46:00.046Z,4.71
2023-01-10T17:48:28.299Z,4.72
2023-01-10T17:50:58.608Z,4.77
2023-01-10T17:53:28.394Z,4.75
2023-01-10T17:55:58.429Z,4.74
2023-01-10T17:58:26.604Z,4.75
2023-01-10T18:00:55.321Z,4.74
2023-01-10T18:03:23.653Z,4.75
2023-01-10T18:05:53.054Z,4.78
2023-01-10T18:08:21.634Z,4.75
2023-01-10T18:10:51.950Z,4.80
2023-01-10T18:13:21.779Z,4.79
2023-01-10T18:15:52.453Z,4.80
2023-01-10T18:18:23.143Z,4.80
2023-01-10T18:20:53.204Z,4.81
2023-01-10T18:23:25.443Z,4.80
2023-01-10T18:25:57.534Z,4.82
2023-01-10T18:28:40.155Z,4.81
2023-01-10T18:31:11.123Z,4.83
2023-01-10T18:33:40.413Z,4.84
2023-01-10T18:36:11.383Z,4.84
2023-01-10T18:38:39.641Z,4.88
2023-01-10T18:41:09.453Z,4.85
2023-01-10T18:43:37.942Z,4.85
2023-01-10T18:46:08.349Z,4.86
2023-01-10T18:48:37.533Z,4.90
2023-01-10T18:51:07.277Z,4.87
2023-01-10T18:53:36.514Z,4.87
2023-01-10T18:56:09.207Z,4.82
2023-01-10T18:58:40.971Z,4.84
2023-01-10T19:01:10.738Z,4.83
2023-01-10T19:03:40.539Z,4.81
2023-01-10T19:06:11.749Z,4.80
2023-01-10T19:08:41.025Z,4.82
2023-01-10T19:11:15.255Z,4.86
2023-01-10T19:13:47.677Z,4.84
2023-01-10T19:16:19.175Z,4.83
2023-01-10T19:18:53.875Z,4.89
2023-01-10T19:21:24.388Z,4.82
2023-01-10T19:23:57.115Z,4.89
2023-01-10T19:26:28.403Z,4.89
2023-01-10T19:28:58.518Z,4.86
2023-01-10T19:31:31.444Z,4.89
2023-01-10T19:34:02.661Z,4.92
2023-01-10T19:36:36.129Z,4.89
2023-01-10T19:39:07.303Z,4.94
2023-01-10T19:41:37.514Z,4.93
2023-01-10T19:44:09.301Z,4.94
2023-01-10T19:46:39.130Z,4.95
2023-01-10T19:49:09.501Z,5.01
2023-01-10T19:51:38.439Z,5.03
2023-01-10T19:54:12.153Z,5.02
2023-01-10T19:56:42.146Z,5.03
2023-01-10T19:59:15.169Z,5.08
2023-01-10T20:01:44.186Z,5.07
2023-01-10T20:04:13.980Z,4.94
2023-01-10T20:06:44.285Z,4.97
2023-01-10T20:09:14.211Z,4.92
2023-01-10T20:11:47.475Z,4.94
2023-01-10T20:14:20.093Z,4.92
2023-01-10T20:16:49.515Z,4.96
2023-01-10T20:19:18.282Z,4.96
2023-01-10T20:21:47.119Z,4.92
2023-01-10T20:24:17.731Z,4.88
2023-01-10T20:26:49.197Z,4.85
2023-01-10T20:29:20.104Z,4.91
2023-01-10T20:31:53.340Z,4.86
2023-01-10T20:34:23.158Z,4.90
2023-01-10T20:36:54.633Z,4.86
2023-01-10T20:39:24.039Z,4.87
2023-01-10T20:41:53.720Z,4.88
2023-01-10T20:44:26.476Z,4.87
2023-01-10T20:46:55.543Z,4.86
2023-01-10T20:49:25.101Z,4.86
2023-01-10T20:51:54.506Z,4.88
2023-01-10T20:54:24.193Z,4.86
2023-01-10T20:56:52.854Z,4.88
2023-01-10T20:59:21.663Z,4.85
2023-01-10T21:01:51.860Z,4.87
2023-01-10T21:04:20.138Z,4.89
2023-01-10T21:06:48.358Z,4.87
2023-01-10T21:09:16.805Z,4.91
2023-01-10T21:11:59.970Z,4.85
2023-01-10T21:14:33.131Z,4.89
2023-01-10T21:17:02.741Z,4.86
2023-01-10T21:19:31.303Z,4.84
2023-01-10T21:21:59.653Z,4.87
2023-01-10T21:24:27.932Z,4.85
2023-01-10T21:26:56.228Z,4.84
2023-01-10T21:29:26.530Z,4.82
2023-01-10T21:31:54.711Z,4.82
2023-01-10T21:34:24.284Z,4.84
2023-01-10T21:36:52.861Z,4.85
2023-01-10T21:39:21.304Z,4.84
2023-01-10T21:42:07.148Z,4.83
2023-01-10T21:44:35.310Z,4.84
2023-01-10T21:47:03.677Z,4.86
2023-01-10T21:49:33.415Z,4.82
2023-01-10T21:52:02.951Z,4.81
2023-01-10T21:54:32.128Z,4.78
2023-01-10T21:57:03.091Z,4.75
2023-01-10T21:59:31.743Z,4.74
2023-01-10T22:02:00.110Z,4.69
2023-01-10T22:04:28.387Z,4.66
2023-01-10T22:06:58.338Z,4.60
2023-01-10T22:09:26.702Z,4.58
2023-01-10T22:11:55.052Z,4.57
2023-01-10T22:14:23.334Z,4.53
2023-01-10T22:16:51.750Z,4.49
2023-01-10T22:19:19.890Z,4.51
2023-01-10T22:21:48.067Z,4.45
2023-01-10T22:24:17.865Z,4.40
2023-01-10T22:26:46.146Z,4.35
2023-01-10T22:29:15.627Z,4.37
2023-01-10T22:31:43.968Z,4.34
2023-01-10T22:34:12.200Z,4.25
2023-01-10T22:36:40.341Z,4.21
2023-01-10T22:39:09.116Z,4.26
2023-01-10T22:41:39.411Z,4.20
2023-01-10T22:44:08.121Z,4.16
2023-01-10T22:46:36.288Z,4.09
2023-01-10T22:49:04.532Z,4.13
2023-01-10T22:51:35.657Z,4.12
2023-01-10T22:54:04.592Z,4.08
2023-01-10T22:56:32.887Z,4.01
2023-01-10T22:59:02.406Z,3.95
2023-01-10T23:01:30.557Z,3.94
2023-01-10T23:03:58.715Z,3.85
2023-01-10T23:06:27.037Z,3.84
2023-01-10T23:08:55.178Z,3.83
2023-01-10T23:11:24.489Z,3.78
2023-01-10T23:13:52.879Z,3.82
2023-01-10T23:16:31.208Z,3.74
2023-01-10T23:19:00.485Z,3.63
2023-01-10T23:21:30.029Z,3.55
2023-01-10T23:23:58.494Z,3.50
2023-01-10T23:26:26.621Z,3.50
2023-01-10T23:28:54.722Z,3.44
2023-01-10T23:31:26.054Z,3.44
2023-01-10T23:33:54.234Z,3.43
2023-01-10T23:36:22.690Z,3.42
2023-01-10T23:38:50.923Z,3.43
2023-01-10T23:41:21.283Z,3.40
2023-01-10T23:43:50.469Z,3.40
2023-01-10T23:46:18.861Z,3.43
2023-01-10T23:48:48.537Z,3.44
2023-01-10T23:51:17.160Z,3.35
2023-01-10T23:53:45.330Z,3.34
2023-01-10T23:56:15.249Z,3.36
2023-01-10T23:58:45.496Z,3.36
